Time;durP1;ratioP1;P1;durP2;ratioP2;P2;SDS_P1;SDS_P2;PMS_P1;PMS_P2;Temp;Humidity;BMP_temperature;BMP_pressure;BME280_temperature;BME280_humidity;BME280_pressure;Samples;Min_cycle;Max_cycle;Signal;HPM_P1;HPM_P2
2023/12/14 00:01:27;;;;;;;0.30;0.30;;;5.50;99.90;;;;;;4411554;32;20070;-58
2023/12/14 00:03:52;;;;;;;0.60;0.60;;;5.50;99.90;;;;;;4411711;32;20078;-58
2023/12/14 00:06:18;;;;;;;0.57;0.57;;;5.50;99.90;;;;;;4414046;32;20085;-58
2023/12/14 00:08:43;;;;;;;0.37;0.37;;;5.50;99.90;;;;;;4411248;32;20073;-58
2023/12/14 00:11:10;;;;;;;0.40;0.40;;;5.50;99.90;;;;;;4412553;32;20077;-60
2023/12/14 00:13:36;;;;;;;0.90;0.90;;;5.50;99.90;;;;;;4398744;32;20093;-58
2023/12/14 00:16:02;;;;;;;0.40;0.40;;;5.40;99.90;;;;;;4399572;32;20856;-60
2023/12/14 00:18:28;;;;;;;0.73;0.73;;;5.50;99.90;;;;;;4412409;32;20077;-59
2023/12/14 00:20:53;;;;;;;0.40;0.40;;;5.40;99.90;;;;;;4398524;32;20525;-59
2023/12/14 00:23:20;;;;;;;1.75;0.82;;;5.50;99.90;;;;;;4397661;32;20057;-59
2023/12/14 00:25:46;;;;;;;0.73;0.73;;;5.40;99.90;;;;;;4399783;32;20119;-58
2023/12/14 00:28:11;;;;;;;0.45;0.45;;;5.40;99.90;;;;;;4409213;32;20066;-60
2023/12/14 00:30:37;;;;;;;0.68;0.68;;;5.50;99.90;;;;;;4408396;32;20094;-60
2023/12/14 00:33:02;;;;;;;0.55;0.55;;;5.40;99.90;;;;;;4405767;32;20073;-59
2023/12/14 00:35:28;;;;;;;0.43;0.43;;;5.40;99.90;;;;;;4410871;32;20358;-60
2023/12/14 00:37:53;;;;;;;2.75;1.02;;;5.40;99.90;;;;;;4411061;32;20069;-60
2023/12/14 00:40:19;;;;;;;1.15;1.05;;;5.30;99.90;;;;;;4409238;32;20098;-59
2023/12/14 00:42:44;;;;;;;0.65;0.65;;;5.30;99.90;;;;;;4410090;32;20070;-59
2023/12/14 00:45:10;;;;;;;1.45;0.60;;;5.30;99.90;;;;;;4416046;32;20062;-60
2023/12/14 00:47:35;;;;;;;0.45;0.45;;;5.30;99.90;;;;;;4411482;32;20090;-59
2023/12/14 00:50:02;;;;;;;1.35;1.27;;;5.30;99.90;;;;;;4411899;32;20057;-59
2023/12/14 00:52:28;;;;;;;0.60;0.60;;;5.30;99.90;;;;;;4412725;32;20069;-60
2023/12/14 00:54:54;;;;;;;0.98;0.95;;;5.30;99.90;;;;;;4412155;32;20169;-59
2023/12/14 00:57:19;;;;;;;6.25;0.95;;;5.30;99.90;;;;;;4415488;32;20467;-60
2023/12/14 00:59:45;;;;;;;1.98;1.30;;;5.30;99.90;;;;;;4413350;32;20795;-59
2023/12/14 01:02:10;;;;;;;0.65;0.65;;;5.30;99.90;;;;;;4414219;32;20082;-60
2023/12/14 01:04:36;;;;;;;0.75;0.75;;;5.40;99.90;;;;;;4405376;32;20668;-59
2023/12/14 01:07:03;;;;;;;1.73;1.08;;;5.30;99.90;;;;;;4415060;32;20406;-60
2023/12/14 01:09:28;;;;;;;0.80;0.80;;;5.30;99.90;;;;;;4417164;32;20081;-60
2023/12/14 01:11:54;;;;;;;3.65;1.92;;;5.30;99.90;;;;;;4419497;32;20129;-60
2023/12/14 01:14:19;;;;;;;1.55;1.15;;;5.30;99.90;;;;;;4417279;32;20073;-59
2023/12/14 01:16:45;;;;;;;1.02;0.95;;;5.30;99.90;;;;;;4414652;32;20078;-59
2023/12/14 01:19:10;;;;;;;0.75;0.75;;;5.30;99.90;;;;;;4413603;32;20069;-60
2023/12/14 01:21:36;;;;;;;1.10;1.05;;;5.30;99.90;;;;;;4403511;32;20126;-59
2023/12/14 01:24:01;;;;;;;0.40;0.40;;;5.30;99.90;;;;;;4419672;32;20431;-59
2023/12/14 01:26:27;;;;;;;2.65;1.45;;;5.10;99.90;;;;;;4421317;32;20057;-59
2023/12/14 01:28:53;;;;;;;0.47;0.47;;;5.20;99.90;;;;;;4402211;32;20066;-59
2023/12/14 01:31:18;;;;;;;0.45;0.45;;;5.30;99.90;;;;;;4417835;32;20125;-59
2023/12/14 01:33:45;;;;;;;0.73;0.73;;;5.30;99.90;;;;;;4405826;32;20124;-58
2023/12/14 01:36:11;;;;;;;0.73;0.73;;;5.30;99.90;;;;;;4402517;32;20073;-59
2023/12/14 01:38:37;;;;;;;0.73;0.73;;;5.30;99.90;;;;;;4415682;32;20086;-59
2023/12/14 01:41:02;;;;;;;0.70;0.70;;;5.30;99.90;;;;;;4414371;32;20090;-59
2023/12/14 01:43:28;;;;;;;0.80;0.80;;;5.20;99.90;;;;;;4414700;32;20104;-60
2023/12/14 01:45:53;;;;;;;1.25;1.15;;;5.20;99.90;;;;;;4417279;32;20106;-59
2023/12/14 01:48:19;;;;;;;0.60;0.60;;;5.20;99.90;;;;;;4414023;32;20074;-59
2023/12/14 01:50:44;;;;;;;1.35;1.00;;;5.20;99.90;;;;;;4414701;32;20057;-59
2023/12/14 01:53:10;;;;;;;0.82;0.82;;;5.20;99.90;;;;;;4414564;32;20120;-61
2023/12/14 01:55:35;;;;;;;0.90;0.90;;;5.10;99.90;;;;;;4414228;32;20569;-60
2023/12/14 01:58:00;;;;;;;0.82;0.82;;;5.10;99.90;;;;;;4414520;32;20126;-60
2023/12/14 02:00:40;;;;;;;3.10;0.88;;;5.00;99.90;;;;;;4412466;32;20538;-61
2023/12/14 02:03:06;;;;;;;0.73;0.73;;;5.00;99.90;;;;;;4414418;32;20089;-59
2023/12/14 02:05:31;;;;;;;1.83;1.27;;;5.10;99.90;;;;;;4415265;32;20128;-60
2023/12/14 02:07:57;;;;;;;9.07;1.05;;;5.00;99.90;;;;;;4411282;32;20411;-60
2023/12/14 02:10:23;;;;;;;1.87;1.58;;;5.00;99.90;;;;;;4417161;32;20172;-60
2023/12/14 02:12:48;;;;;;;0.80;0.80;;;5.00;99.90;;;;;;4416183;32;20078;-58
2023/12/14 02:15:14;;;;;;;1.70;1.10;;;5.00;99.90;;;;;;4402858;32;20078;-59
2023/12/14 02:17:39;;;;;;;0.65;0.65;;;4.90;99.90;;;;;;4414568;32;20069;-56
2023/12/14 02:20:05;;;;;;;0.50;0.50;;;4.80;99.90;;;;;;4411802;32;20058;-59
2023/12/14 02:22:48;;;;;;;0.60;0.60;;;4.90;99.90;;;;;;4415081;32;20518;-59
2023/12/14 02:25:14;;;;;;;0.30;0.30;;;4.80;99.90;;;;;;4403544;32;20577;-59
2023/12/14 02:27:39;;;;;;;0.50;0.50;;;4.90;99.90;;;;;;4411679;32;20066;-59
2023/12/14 02:30:05;;;;;;;0.73;0.73;;;4.80;99.90;;;;;;4412405;32;20061;-60
2023/12/14 02:32:31;;;;;;;4.20;0.88;;;4.70;99.90;;;;;;4411969;32;21030;-60
2023/12/14 02:34:56;;;;;;;0.40;0.40;;;4.70;99.90;;;;;;4413706;32;20057;-59
2023/12/14 02:37:22;;;;;;;0.68;0.68;;;4.70;99.90;;;;;;4415664;32;20054;-59
2023/12/14 02:39:47;;;;;;;1.23;0.88;;;4.70;99.90;;;;;;4413149;32;20525;-60
2023/12/14 02:42:13;;;;;;;1.35;1.25;;;4.70;99.90;;;;;;4413442;32;20078;-59
2023/12/14 02:44:39;;;;;;;0.80;0.80;;;4.70;99.90;;;;;;4412822;32;20069;-58
2023/12/14 02:47:04;;;;;;;0.68;0.68;;;4.70;99.90;;;;;;4411440;32;20054;-59
2023/12/14 02:49:30;;;;;;;0.32;0.32;;;4.70;99.90;;;;;;4412825;32;20995;-58
2023/12/14 02:51:55;;;;;;;0.37;0.37;;;4.70;99.90;;;;;;4412219;32;20086;-60
2023/12/14 02:54:21;;;;;;;0.45;0.45;;;4.70;99.90;;;;;;4412815;32;20061;-60
2023/12/14 02:56:46;;;;;;;1.83;1.33;;;4.80;99.90;;;;;;4414389;32;20216;-60
2023/12/14 02:59:11;;;;;;;0.57;0.57;;;4.70;99.90;;;;;;4412601;32;20058;-60
2023/12/14 03:01:37;;;;;;;0.75;0.75;;;4.60;99.90;;;;;;4414351;32;20141;-59
2023/12/14 03:04:02;;;;;;;0.50;0.50;;;4.60;99.90;;;;;;4414140;32;20140;-59
2023/12/14 03:06:28;;;;;;;2.17;1.52;;;4.60;99.90;;;;;;4412956;32;20082;-59
2023/12/14 03:08:53;;;;;;;0.52;0.52;;;4.70;99.90;;;;;;4412318;32;20135;-59
2023/12/14 03:11:23;;;;;;;0.60;0.60;;;4.60;99.90;;;;;;4415149;32;20057;-59
2023/12/14 03:13:49;;;;;;;0.50;0.50;;;4.50;99.90;;;;;;4399750;32;20061;-59
2023/12/14 03:16:14;;;;;;;0.47;0.47;;;4.50;99.90;;;;;;4414605;32;20077;-58
2023/12/14 03:18:40;;;;;;;1.12;1.08;;;4.50;99.90;;;;;;4409216;32;20058;-59
2023/12/14 03:21:05;;;;;;;0.50;0.50;;;4.50;99.90;;;;;;4410845;32;20106;-59
2023/12/14 03:23:31;;;;;;;0.30;0.30;;;4.40;99.90;;;;;;4412436;32;20069;-60
2023/12/14 03:25:56;;;;;;;1.35;1.10;;;4.50;99.90;;;;;;4412076;32;20081;-60
2023/12/14 03:28:21;;;;;;;1.50;1.40;;;4.60;99.90;;;;;;4410094;32;20081;-60
2023/12/14 03:30:48;;;;;;;0.70;0.70;;;4.60;99.90;;;;;;4412847;32;20058;-60
2023/12/14 03:33:13;;;;;;;4.57;0.95;;;4.70;99.90;;;;;;4411229;32;20529;-61
2023/12/14 03:35:41;;;;;;;0.68;0.68;;;4.60;99.90;;;;;;4413089;32;20061;-61
2023/12/14 03:38:07;;;;;;;0.77;0.77;;;4.70;99.90;;;;;;4411023;32;20077;-61
2023/12/14 03:40:33;;;;;;;4.68;1.50;;;4.60;99.90;;;;;;4411403;32;20415;-60
2023/12/14 03:42:58;;;;;;;1.05;1.02;;;4.60;99.90;;;;;;4410888;32;20569;-60
2023/12/14 03:45:24;;;;;;;0.50;0.50;;;4.50;99.90;;;;;;4412889;32;20062;-59
2023/12/14 03:47:49;;;;;;;0.50;0.50;;;4.50;99.90;;;;;;4413732;32;20068;-58
2023/12/14 03:50:15;;;;;;;0.55;0.55;;;4.50;99.90;;;;;;4411106;32;20069;-59
2023/12/14 03:52:40;;;;;;;0.82;0.82;;;4.50;99.90;;;;;;4413514;32;20517;-59
2023/12/14 03:55:06;;;;;;;1.30;1.20;;;4.60;99.90;;;;;;4414540;32;20127;-60
2023/12/14 03:57:32;;;;;;;1.55;1.12;;;4.60;99.90;;;;;;4414347;32;20081;-60
2023/12/14 03:59:57;;;;;;;2.08;0.98;;;4.60;99.90;;;;;;4412762;32;20057;-59
2023/12/14 04:02:22;;;;;;;0.50;0.50;;;4.60;99.90;;;;;;4416425;32;20105;-59
2023/12/14 04:04:48;;;;;;;0.70;0.68;;;4.60;99.90;;;;;;4414962;32;20073;-60
2023/12/14 04:07:14;;;;;;;0.65;0.65;;;4.60;99.90;;;;;;4411480;32;20123;-59
2023/12/14 04:09:39;;;;;;;1.05;1.00;;;4.60;99.90;;;;;;4397630;32;20074;-59
2023/12/14 04:12:05;;;;;;;0.82;0.82;;;4.60;99.90;;;;;;4413463;32;20086;-58
2023/12/14 04:14:31;;;;;;;0.55;0.55;;;4.70;99.90;;;;;;4413421;32;20983;-59
2023/12/14 04:16:56;;;;;;;0.75;0.75;;;4.60;99.90;;;;;;4413882;32;20066;-59
2023/12/14 04:19:22;;;;;;;0.50;0.50;;;4.60;99.90;;;;;;4413493;32;20099;-57
2023/12/14 04:21:48;;;;;;;0.65;0.65;;;4.60;99.90;;;;;;4411583;32;20077;-60
2023/12/14 04:24:13;;;;;;;0.40;0.40;;;4.60;99.90;;;;;;4399780;32;20109;-59
2023/12/14 04:26:39;;;;;;;1.05;1.02;;;4.60;99.90;;;;;;4397276;32;20087;-61
2023/12/14 04:29:07;;;;;;;0.55;0.55;;;4.60;99.90;;;;;;4411864;32;21165;-60
2023/12/14 04:31:33;;;;;;;0.85;0.85;;;4.60;99.90;;;;;;4411594;32;20099;-60
2023/12/14 04:33:58;;;;;;;0.50;0.50;;;4.50;99.90;;;;;;4413768;32;20078;-59
2023/12/14 04:36:24;;;;;;;0.50;0.50;;;4.50;99.90;;;;;;4413658;32;20077;-59
2023/12/14 04:38:50;;;;;;;0.65;0.65;;;4.50;99.90;;;;;;4409834;32;20065;-59
2023/12/14 04:41:15;;;;;;;0.70;0.70;;;4.50;99.90;;;;;;4412188;32;20106;-60
2023/12/14 04:43:41;;;;;;;3.62;1.15;;;4.40;99.90;;;;;;4412927;32;20057;-60
2023/12/14 04:46:06;;;;;;;1.92;0.90;;;4.50;99.90;;;;;;4397563;32;20061;-60
2023/12/14 04:48:32;;;;;;;5.85;1.25;;;4.50;99.90;;;;;;4396285;32;20073;-61
2023/12/14 04:50:57;;;;;;;0.50;0.50;;;4.50;99.90;;;;;;4413869;32;20116;-60
2023/12/14 04:53:23;;;;;;;0.50;0.50;;;4.60;99.90;;;;;;4411432;32;20082;-59
2023/12/14 04:55:48;;;;;;;0.88;0.88;;;4.60;99.90;;;;;;4415721;32;20061;-59
2023/12/14 04:58:14;;;;;;;0.60;0.60;;;4.50;99.90;;;;;;4410922;32;20082;-61
2023/12/14 05:00:39;;;;;;;2.10;0.82;;;4.50;99.90;;;;;;4398060;32;20082;-60
2023/12/14 05:03:05;;;;;;;0.50;0.50;;;4.50;99.90;;;;;;4412586;32;20077;-61
2023/12/14 05:05:30;;;;;;;3.85;1.30;;;4.50;99.90;;;;;;4414629;32;20095;-60
2023/12/14 05:07:55;;;;;;;4.82;1.15;;;4.60;99.90;;;;;;4412066;32;20054;-58
2023/12/14 05:10:21;;;;;;;0.55;0.55;;;4.60;99.90;;;;;;4410315;32;20621;-60
2023/12/14 05:12:46;;;;;;;0.60;0.60;;;4.50;99.90;;;;;;4412231;32;20507;-60
2023/12/14 05:15:12;;;;;;;0.60;0.60;;;4.50;99.90;;;;;;4411326;32;20065;-61
2023/12/14 05:17:37;;;;;;;1.27;0.68;;;4.50;99.90;;;;;;4413356;32;20402;-59
2023/12/14 05:20:08;;;;;;;0.47;0.47;;;4.50;99.90;;;;;;4408550;32;20077;-60
2023/12/14 05:22:33;;;;;;;0.40;0.40;;;4.50;99.90;;;;;;4405465;32;20294;-61
2023/12/14 05:24:59;;;;;;;0.45;0.45;;;4.60;99.90;;;;;;4412575;32;20086;-60
2023/12/14 05:27:24;;;;;;;0.40;0.40;;;4.50;99.90;;;;;;4411417;32;20046;-61
2023/12/14 05:29:50;;;;;;;3.58;1.95;;;4.50;99.90;;;;;;4408434;32;20066;-59
2023/12/14 05:32:16;;;;;;;1.62;1.00;;;4.50;99.90;;;;;;4397664;32;20125;-61
2023/12/14 05:34:41;;;;;;;0.52;0.52;;;4.50;99.90;;;;;;4400055;32;20053;-60
2023/12/14 05:37:07;;;;;;;0.32;0.32;;;4.50;99.90;;;;;;4410814;32;20655;-59
2023/12/14 05:39:32;;;;;;;0.60;0.60;;;4.50;99.90;;;;;;4409915;32;20204;-60
2023/12/14 05:41:57;;;;;;;0.40;0.40;;;4.60;99.90;;;;;;4399893;32;20066;-60
2023/12/14 05:44:24;;;;;;;3.20;1.33;;;4.50;99.90;;;;;;4418227;32;20506;-60
2023/12/14 05:46:50;;;;;;;5.37;1.17;;;4.50;99.90;;;;;;4413203;32;20454;-61
2023/12/14 05:49:15;;;;;;;0.50;0.50;;;4.60;99.90;;;;;;4414110;32;20061;-62
2023/12/14 05:51:41;;;;;;;0.68;0.62;;;4.60;99.90;;;;;;4410877;32;20089;-58
2023/12/14 05:54:06;;;;;;;1.00;0.82;;;4.70;99.90;;;;;;4401524;32;20078;-60
2023/12/14 05:56:32;;;;;;;0.70;0.55;;;4.70;99.90;;;;;;4411808;32;20085;-60
2023/12/14 05:58:57;;;;;;;1.62;0.85;;;4.70;99.90;;;;;;4400050;32;20542;-60
2023/12/14 06:01:23;;;;;;;0.40;0.40;;;4.70;99.90;;;;;;4413511;32;20066;-60
2023/12/14 06:03:49;;;;;;;0.68;0.68;;;4.60;99.90;;;;;;4414968;32;20057;-59
2023/12/14 06:06:14;;;;;;;0.40;0.40;;;4.60;99.90;;;;;;4403444;32;20145;-62
2023/12/14 06:08:41;;;;;;;0.30;0.30;;;4.70;99.90;;;;;;4413443;32;20917;-60
2023/12/14 06:11:06;;;;;;;0.60;0.60;;;4.80;99.90;;;;;;4409515;32;20447;-61
2023/12/14 06:13:33;;;;;;;0.47;0.47;;;4.70;99.90;;;;;;4402327;32;20089;-61
2023/12/14 06:15:58;;;;;;;0.40;0.40;;;4.60;99.90;;;;;;4412158;32;20062;-61
2023/12/14 06:18:24;;;;;;;0.30;0.30;;;4.60;99.90;;;;;;4409742;32;20345;-60
2023/12/14 06:20:49;;;;;;;0.93;0.93;;;4.60;99.90;;;;;;4385708;32;20133;-61
2023/12/14 06:23:15;;;;;;;0.40;0.40;;;4.60;99.90;;;;;;4406678;32;20731;-60
2023/12/14 06:25:40;;;;;;;0.40;0.40;;;4.60;99.90;;;;;;4406362;32;20164;-61
2023/12/14 06:28:06;;;;;;;0.57;0.57;;;4.60;99.90;;;;;;4398902;32;20074;-60
2023/12/14 06:30:33;;;;;;;1.00;0.70;;;4.70;99.90;;;;;;4397845;32;20110;-61
2023/12/14 06:32:58;;;;;;;0.40;0.40;;;4.80;99.90;;;;;;4406931;32;20194;-59
2023/12/14 06:35:24;;;;;;;0.50;0.45;;;4.70;99.90;;;;;;4409293;32;20081;-61
2023/12/14 06:37:49;;;;;;;0.47;0.47;;;4.60;99.90;;;;;;4401165;32;20070;-60
2023/12/14 06:40:15;;;;;;;0.52;0.52;;;4.60;99.90;;;;;;4407030;32;20423;-59
2023/12/14 06:42:42;;;;;;;1.10;1.00;;;4.60;99.90;;;;;;4403359;32;20097;-60
2023/12/14 06:45:08;;;;;;;0.30;0.30;;;4.60;99.90;;;;;;4400040;32;20386;-60
2023/12/14 06:47:33;;;;;;;0.55;0.55;;;4.60;99.90;;;;;;4398324;32;20085;-62
2023/12/14 06:49:59;;;;;;;0.50;0.50;;;4.70;99.90;;;;;;4400596;32;20077;-61
2023/12/14 06:52:24;;;;;;;0.47;0.47;;;4.80;99.90;;;;;;4393442;32;20082;-57
2023/12/14 06:54:50;;;;;;;0.40;0.40;;;4.80;99.90;;;;;;4398513;32;20322;-60
2023/12/14 06:57:16;;;;;;;0.40;0.40;;;4.80;99.90;;;;;;4386067;32;20200;-60
2023/12/14 06:59:42;;;;;;;2.45;0.95;;;4.70;99.90;;;;;;4391233;32;20644;-60
2023/12/14 07:02:07;;;;;;;0.60;0.60;;;4.70;99.90;;;;;;4381341;32;20089;-61
2023/12/14 07:04:33;;;;;;;0.57;0.57;;;4.70;99.90;;;;;;4391035;32;20091;-60
2023/12/14 07:06:59;;;;;;;0.62;0.62;;;4.70;99.90;;;;;;4373900;32;20667;-59
2023/12/14 07:09:25;;;;;;;0.60;0.60;;;4.70;99.90;;;;;;4393463;32;20529;-60
2023/12/14 07:11:51;;;;;;;1.33;0.70;;;4.70;99.90;;;;;;4395796;32;20074;-59
2023/12/14 07:14:17;;;;;;;0.30;0.30;;;4.70;99.90;;;;;;4398129;32;20097;-60
2023/12/14 07:16:42;;;;;;;0.60;0.50;;;4.60;99.90;;;;;;4393796;32;20534;-60
2023/12/14 07:19:08;;;;;;;0.30;0.30;;;4.60;99.90;;;;;;4393408;32;21029;-60
2023/12/14 07:21:33;;;;;;;0.47;0.47;;;4.60;99.90;;;;;;4395098;32;20097;-61
2023/12/14 07:23:59;;;;;;;0.32;0.32;;;4.60;99.90;;;;;;4395602;32;20077;-60
2023/12/14 07:26:24;;;;;;;1.05;0.65;;;4.60;99.90;;;;;;4379327;32;20117;-59
2023/12/14 07:28:53;;;;;;;0.30;0.30;;;4.60;99.90;;;;;;4390966;32;20094;-61
2023/12/14 07:31:18;;;;;;;0.52;0.52;;;4.60;99.90;;;;;;4378624;32;20089;-61
2023/12/14 07:33:48;;;;;;;0.40;0.40;;;4.70;99.90;;;;;;4392664;32;20096;-59
2023/12/14 07:36:13;;;;;;;0.50;0.50;;;4.70;99.90;;;;;;4394906;32;20545;-62
2023/12/14 07:38:39;;;;;;;0.30;0.30;;;4.70;99.90;;;;;;4384205;32;20066;-62
2023/12/14 07:41:05;;;;;;;0.45;0.45;;;4.80;99.90;;;;;;4395538;32;20069;-63
2023/12/14 07:43:30;;;;;;;1.42;0.60;;;4.80;99.90;;;;;;4397810;32;20062;-62
2023/12/14 07:45:57;;;;;;;0.40;0.40;;;4.70;99.90;;;;;;4398843;32;20188;-62
2023/12/14 07:48:22;;;;;;;0.40;0.40;;;4.70;99.90;;;;;;4388438;32;20089;-62
2023/12/14 07:50:48;;;;;;;1.65;0.95;;;4.80;99.90;;;;;;4392476;32;20077;-61
2023/12/14 07:53:14;;;;;;;0.47;0.47;;;4.80;99.90;;;;;;4391441;32;20069;-61
2023/12/14 07:55:39;;;;;;;0.47;0.47;;;4.80;99.90;;;;;;4394459;32;20082;-62
2023/12/14 07:58:04;;;;;;;0.40;0.40;;;4.80;99.90;;;;;;4394852;32;20430;-61
2023/12/14 08:00:30;;;;;;;0.47;0.47;;;4.90;99.90;;;;;;4394472;32;20104;-61
2023/12/14 08:02:55;;;;;;;0.70;0.70;;;4.90;99.90;;;;;;4392045;32;20106;-62
2023/12/14 08:05:21;;;;;;;2.10;1.67;;;4.90;99.90;;;;;;4394117;32;20132;-61
2023/12/14 08:07:47;;;;;;;0.62;0.50;;;4.90;99.90;;;;;;4394827;32;20445;-61
2023/12/14 08:10:13;;;;;;;0.70;0.70;;;4.80;99.90;;;;;;4391321;32;20517;-62
2023/12/14 08:12:38;;;;;;;0.40;0.40;;;4.70;99.90;;;;;;4391180;32;20078;-60
2023/12/14 08:15:04;;;;;;;0.82;0.82;;;4.80;99.90;;;;;;4397444;32;20093;-62
2023/12/14 08:17:30;;;;;;;0.40;0.40;;;4.70;99.90;;;;;;4391360;32;20395;-61
2023/12/14 08:19:55;;;;;;;1.17;1.08;;;4.70;99.90;;;;;;4389577;32;20086;-63
2023/12/14 08:22:21;;;;;;;0.65;0.65;;;4.70;99.90;;;;;;4395529;32;20125;-59
2023/12/14 08:24:48;;;;;;;0.50;0.50;;;4.70;99.90;;;;;;4395992;32;20085;-61
2023/12/14 08:27:13;;;;;;;0.55;0.55;;;4.80;99.90;;;;;;4391429;32;20568;-62
2023/12/14 08:29:39;;;;;;;1.98;0.95;;;4.80;99.90;;;;;;4388109;32;20188;-62
2023/12/14 08:32:05;;;;;;;0.50;0.50;;;4.80;99.90;;;;;;4395079;32;20538;-62
2023/12/14 08:34:30;;;;;;;0.60;0.60;;;4.80;99.90;;;;;;4383369;32;20105;-62
2023/12/14 08:36:56;;;;;;;0.93;0.90;;;4.80;99.90;;;;;;4401480;32;20065;-62
2023/12/14 08:39:22;;;;;;;0.95;0.70;;;4.90;99.90;;;;;;4391622;32;20731;-62
2023/12/14 08:41:48;;;;;;;1.35;1.25;;;4.90;99.90;;;;;;4357917;32;20087;-62
2023/12/14 08:44:14;;;;;;;0.80;0.80;;;4.80;99.90;;;;;;4380867;32;20777;-61
2023/12/14 08:46:42;;;;;;;3.95;0.70;;;4.90;99.90;;;;;;4396395;32;20086;-60
2023/12/14 08:49:08;;;;;;;2.65;1.17;;;4.90;99.90;;;;;;4390412;32;20137;-62
2023/12/14 08:51:34;;;;;;;0.70;0.70;;;4.80;99.90;;;;;;4379550;32;20383;-62
2023/12/14 08:53:59;;;;;;;1.52;1.42;;;4.90;99.90;;;;;;4386883;32;20665;-63
2023/12/14 08:56:25;;;;;;;1.17;1.12;;;4.80;99.90;;;;;;4372268;32;20098;-62
2023/12/14 08:58:52;;;;;;;0.73;0.73;;;4.80;99.90;;;;;;4371270;32;20145;-61
2023/12/14 09:01:23;;;;;;;0.32;0.32;;;4.80;99.90;;;;;;4368932;32;20403;-62
2023/12/14 09:03:49;;;;;;;0.68;0.68;;;4.80;99.90;;;;;;4373051;32;20086;-61
2023/12/14 09:06:17;;;;;;;0.60;0.60;;;4.80;99.90;;;;;;4391226;32;20094;-62
2023/12/14 09:08:42;;;;;;;0.60;0.60;;;4.90;99.90;;;;;;4389082;32;20194;-62
2023/12/14 09:11:08;;;;;;;0.60;0.60;;;4.90;99.90;;;;;;4368191;32;20103;-62
2023/12/14 09:13:34;;;;;;;0.95;0.88;;;4.80;99.90;;;;;;4390805;32;20073;-62
2023/12/14 09:16:00;;;;;;;4.03;0.73;;;4.80;99.90;;;;;;4391898;32;20156;-62
2023/12/14 09:18:26;;;;;;;0.55;0.55;;;4.80;99.90;;;;;;4367731;32;20077;-62
2023/12/14 09:20:53;;;;;;;0.50;0.50;;;4.90;99.90;;;;;;4388746;32;20349;-63
2023/12/14 09:23:19;;;;;;;0.60;0.60;;;5.00;99.90;;;;;;4387935;32;21294;-62
2023/12/14 09:25:45;;;;;;;0.50;0.50;;;4.90;99.90;;;;;;4394537;32;20171;-62
2023/12/14 09:28:11;;;;;;;0.47;0.47;;;4.90;99.90;;;;;;4379722;32;20153;-62
2023/12/14 09:30:37;;;;;;;0.50;0.50;;;4.90;99.90;;;;;;4373785;32;20090;-63
2023/12/14 09:33:03;;;;;;;1.40;0.90;;;5.00;99.90;;;;;;4394795;32;20102;-61
2023/12/14 09:35:29;;;;;;;0.22;0.22;;;5.00;99.90;;;;;;4395649;32;20090;-62
2023/12/14 09:37:56;;;;;;;0.75;0.75;;;4.90;99.90;;;;;;4394701;32;20101;-61
2023/12/14 09:40:22;;;;;;;0.57;0.57;;;4.90;99.90;;;;;;4381891;32;20496;-63
2023/12/14 09:42:48;;;;;;;0.52;0.52;;;4.90;99.90;;;;;;4385261;32;20090;-62
2023/12/14 09:45:16;;;;;;;4.20;1.33;;;4.90;99.90;;;;;;4370234;32;20208;-62
2023/12/14 09:47:41;;;;;;;2.03;1.20;;;4.90;99.90;;;;;;4370223;32;20423;-62
2023/12/14 09:50:07;;;;;;;0.65;0.65;;;4.90;99.90;;;;;;4367839;32;20085;-62
2023/12/14 09:52:33;;;;;;;1.02;0.68;;;4.90;99.90;;;;;;4382591;32;20184;-61
2023/12/14 09:55:00;;;;;;;1.00;0.98;;;4.90;99.90;;;;;;4387039;32;21006;-61
2023/12/14 09:57:26;;;;;;;0.65;0.65;;;4.80;99.90;;;;;;4373688;32;20130;-62
2023/12/14 09:59:53;;;;;;;0.40;0.40;;;4.90;99.90;;;;;;4384437;32;20070;-60
2023/12/14 10:02:19;;;;;;;0.73;0.73;;;4.90;99.90;;;;;;4387749;32;20125;-62
2023/12/14 10:04:46;;;;;;;0.43;0.43;;;4.90;99.90;;;;;;4387928;32;20097;-61
2023/12/14 10:07:12;;;;;;;2.90;1.15;;;5.00;99.90;;;;;;4391724;32;20085;-61
2023/12/14 10:09:38;;;;;;;1.65;0.80;;;4.90;99.90;;;;;;4392847;32;20080;-62
2023/12/14 10:12:06;;;;;;;0.60;0.60;;;4.90;99.90;;;;;;4394881;32;20092;-63
2023/12/14 10:14:33;;;;;;;1.30;1.15;;;4.90;99.90;;;;;;4380562;32;20241;-64
2023/12/14 10:17:12;;;;;;;6.68;1.15;;;4.90;99.90;;;;;;4391039;32;20093;-64
2023/12/14 10:19:43;;;;;;;3.40;1.20;;;5.00;99.90;;;;;;4378272;32;20114;-59
2023/12/14 10:22:08;;;;;;;0.68;0.68;;;5.00;99.90;;;;;;4377592;32;20085;-61
2023/12/14 10:24:35;;;;;;;1.58;1.27;;;5.00;99.90;;;;;;4392510;32;20485;-61
2023/12/14 10:27:07;;;;;;;4.12;1.20;;;4.90;99.90;;;;;;4391572;32;20727;-60
2023/12/14 10:29:34;;;;;;;0.50;0.50;;;5.00;99.90;;;;;;4384043;32;20101;-61
2023/12/14 10:32:03;;;;;;;0.40;0.40;;;5.00;99.90;;;;;;4369789;32;20180;-59
2023/12/14 10:34:29;;;;;;;0.60;0.60;;;5.00;99.90;;;;;;4359089;32;20099;-60
2023/12/14 10:36:55;;;;;;;1.55;0.73;;;4.90;99.90;;;;;;4386686;32;20069;-60
2023/12/14 10:39:20;;;;;;;1.17;0.98;;;5.00;99.90;;;;;;4388528;32;20577;-61
2023/12/14 10:41:48;;;;;;;0.55;0.55;;;4.90;99.90;;;;;;4388423;32;20085;-61
2023/12/14 10:44:15;;;;;;;0.50;0.50;;;5.00;99.90;;;;;;4372338;32;20097;-59
2023/12/14 10:46:41;;;;;;;1.15;0.88;;;5.00;99.90;;;;;;4374593;32;20316;-61
2023/12/14 10:49:07;;;;;;;0.45;0.45;;;5.00;99.90;;;;;;4388083;32;20129;-61
2023/12/14 10:51:37;;;;;;;0.68;0.68;;;5.00;99.90;;;;;;4377883;32;20172;-59
2023/12/14 10:54:04;;;;;;;0.50;0.50;;;5.00;99.90;;;;;;4397742;32;20077;-61
2023/12/14 10:56:31;;;;;;;0.30;0.30;;;5.10;99.90;;;;;;4388463;32;20101;-61
2023/12/14 10:58:58;;;;;;;1.00;1.00;;;5.10;99.90;;;;;;4391277;32;21104;-60
2023/12/14 11:01:24;;;;;;;0.88;0.73;;;5.10;99.90;;;;;;4359134;32;20085;-60
2023/12/14 11:03:55;;;;;;;0.40;0.40;;;5.10;99.90;;;;;;4370841;32;20512;-61
2023/12/14 11:06:28;;;;;;;1.45;1.17;;;5.10;99.90;;;;;;4387022;32;21198;-59
2023/12/14 11:08:57;;;;;;;0.65;0.65;;;5.20;99.90;;;;;;4376657;32;20097;-59
2023/12/14 11:11:27;;;;;;;0.60;0.60;;;5.20;99.90;;;;;;4385442;32;20989;-60
2023/12/14 11:13:53;;;;;;;0.40;0.40;;;5.10;99.90;;;;;;4390267;32;20121;-60
2023/12/14 11:16:21;;;;;;;1.80;1.15;;;5.10;99.90;;;;;;4379424;32;20078;-62
2023/12/14 11:18:47;;;;;;;0.57;0.57;;;5.00;99.90;;;;;;4380123;32;20113;-60
2023/12/14 11:21:20;;;;;;;3.17;0.52;;;5.10;99.90;;;;;;4368720;32;20097;-60
2023/12/14 11:23:45;;;;;;;0.82;0.77;;;5.10;99.90;;;;;;4379602;32;20619;-59
2023/12/14 11:26:19;;;;;;;0.40;0.40;;;5.10;99.90;;;;;;4399122;32;20085;-59
2023/12/14 11:28:46;;;;;;;2.03;0.77;;;5.10;99.90;;;;;;4391386;32;20494;-60
2023/12/14 11:31:12;;;;;;;1.27;1.17;;;5.10;99.90;;;;;;4401580;32;20169;-60
2023/12/14 11:33:38;;;;;;;0.30;0.30;;;5.10;99.90;;;;;;4386379;32;20086;-61
2023/12/14 11:36:04;;;;;;;2.12;1.42;;;5.10;99.90;;;;;;4400656;32;20078;-59
2023/12/14 11:38:31;;;;;;;1.70;1.40;;;5.10;99.90;;;;;;4403723;32;20128;-62
2023/12/14 11:41:00;;;;;;;0.55;0.55;;;5.10;99.90;;;;;;4388716;32;20139;-60
2023/12/14 11:43:26;;;;;;;0.77;0.77;;;5.10;99.90;;;;;;4401933;32;20073;-58
2023/12/14 11:45:52;;;;;;;0.80;0.60;;;5.10;99.90;;;;;;4405771;32;20373;-61
2023/12/14 11:48:19;;;;;;;0.80;0.80;;;5.10;99.90;;;;;;4403674;32;20089;-61
2023/12/14 11:50:45;;;;;;;0.40;0.40;;;5.10;99.90;;;;;;4380557;32;125076;-62
2023/12/14 11:53:12;;;;;;;0.60;0.60;;;5.10;99.90;;;;;;4385615;32;20106;-61
2023/12/14 11:55:40;;;;;;;0.52;0.52;;;5.10;99.90;;;;;;4397072;32;20517;-62
2023/12/14 11:58:06;;;;;;;0.60;0.60;;;5.10;99.90;;;;;;4383354;32;20123;-61
2023/12/14 12:00:33;;;;;;;2.60;0.90;;;5.10;99.90;;;;;;4393416;32;20483;-60
2023/12/14 12:03:20;;;;;;;6.93;1.70;;;5.10;99.90;;;;;;4382290;32;20331;-62
2023/12/14 12:05:48;;;;;;;0.68;0.68;;;5.10;99.90;;;;;;4372369;32;20085;-62
2023/12/14 12:08:15;;;;;;;0.32;0.32;;;5.20;99.90;;;;;;4378589;32;20094;-60
2023/12/14 12:10:43;;;;;;;0.93;0.88;;;5.10;99.90;;;;;;4372545;32;20136;-61
2023/12/14 12:13:14;;;;;;;0.57;0.55;;;5.10;99.90;;;;;;4378942;32;20295;-62
2023/12/14 12:15:40;;;;;;;0.60;0.57;;;5.10;99.90;;;;;;4391556;32;20082;-61
2023/12/14 12:18:07;;;;;;;0.90;0.90;;;5.10;99.90;;;;;;4390301;32;20082;-60
2023/12/14 12:20:33;;;;;;;10.32;0.80;;;5.20;99.90;;;;;;4393331;32;20100;-60
2023/12/14 12:22:59;;;;;;;0.70;0.70;;;5.10;99.90;;;;;;4390021;32;20082;-60
2023/12/14 12:25:26;;;;;;;0.50;0.50;;;5.10;99.90;;;;;;4395128;32;20189;-61
2023/12/14 12:27:52;;;;;;;0.40;0.40;;;5.20;99.90;;;;;;4393746;32;20098;-60
2023/12/14 12:30:17;;;;;;;0.50;0.50;;;5.20;99.90;;;;;;4617350;27;20199;-76
2023/12/14 12:32:44;;;;;;;0.40;0.40;;;5.30;99.90;;;;;;4399662;32;20081;-77
2023/12/14 12:35:09;;;;;;;0.55;0.55;;;5.30;99.90;;;;;;4414490;32;20168;-77
2023/12/14 12:37:36;;;;;;;0.70;0.70;;;5.30;99.90;;;;;;4413309;32;20148;-77
2023/12/14 12:40:02;;;;;;;4.00;1.62;;;5.30;99.90;;;;;;4411954;32;20523;-76
2023/12/14 12:42:29;;;;;;;0.60;0.60;;;5.30;99.90;;;;;;4410387;32;20136;-77
2023/12/14 12:44:55;;;;;;;0.73;0.73;;;5.30;99.90;;;;;;4411221;32;20069;-77
2023/12/14 12:47:20;;;;;;;1.60;1.02;;;5.20;99.90;;;;;;4411826;32;20153;-77
2023/12/14 12:49:47;;;;;;;0.50;0.50;;;5.20;99.90;;;;;;4416495;32;20124;-76
2023/12/14 12:52:12;;;;;;;0.68;0.68;;;5.10;99.90;;;;;;4420545;32;20097;-76